sensor_id;sensor_type;location;lat;lon;timestamp;temperature;humidity
421;DHT22;23959;49.046;8.468;2022-07-06T00:01:57;18.30;99.60
421;DHT22;23959;49.046;8.468;2022-07-06T00:04:23;18.20;99.60
421;DHT22;23959;49.046;8.468;2022-07-06T00:06:49;18.10;99.60
421;DHT22;23959;49.046;8.468;2022-07-06T00:09:16;17.80;99.60
421;DHT22;23959;49.046;8.468;2022-07-06T00:11:42;17.60;99.60
421;DHT22;23959;49.046;8.468;2022-07-06T00:14:08;17.80;99.60
421;DHT22;23959;49.046;8.468;2022-07-06T00:16:35;17.70;99.60
421;DHT22;23959;49.046;8.468;2022-07-06T00:19:01;17.60;99.60
421;DHT22;23959;49.046;8.468;2022-07-06T00:21:27;17.60;99.60
421;DHT22;23959;49.046;8.468;2022-07-06T00:23:53;17.40;99.60
421;DHT22;23959;49.046;8.468;2022-07-06T00:26:20;17.20;99.60
421;DHT22;23959;49.046;8.468;2022-07-06T00:28:46;17.10;99.60
421;DHT22;23959;49.046;8.468;2022-07-06T00:31:12;17.00;99.60
421;DHT22;23959;49.046;8.468;2022-07-06T00:33:39;17.00;99.60
421;DHT22;23959;49.046;8.468;2022-07-06T00:36:05;17.10;99.60
421;DHT22;23959;49.046;8.468;2022-07-06T00:38:32;17.10;99.60
421;DHT22;23959;49.046;8.468;2022-07-06T00:40:58;17.20;99.60
421;DHT22;23959;49.046;8.468;2022-07-06T00:43:24;17.10;99.60
421;DHT22;23959;49.046;8.468;2022-07-06T00:45:51;16.90;99.60
421;DHT22;23959;49.046;8.468;2022-07-06T00:48:17;16.90;99.60
421;DHT22;23959;49.046;8.468;2022-07-06T00:50:43;16.90;99.60
421;DHT22;23959;49.046;8.468;2022-07-06T00:53:09;17.00;99.60
421;DHT22;23959;49.046;8.468;2022-07-06T00:55:38;17.00;99.60
421;DHT22;23959;49.046;8.468;2022-07-06T00:58:08;16.80;99.60
421;DHT22;23959;49.046;8.468;2022-07-06T01:00:35;16.90;99.60
421;DHT22;23959;49.046;8.468;2022-07-06T01:03:02;16.90;99.60
421;DHT22;23959;49.046;8.468;2022-07-06T01:05:29;16.90;99.60
421;DHT22;23959;49.046;8.468;2022-07-06T01:07:55;16.70;99.60
421;DHT22;23959;49.046;8.468;2022-07-06T01:10:22;16.70;99.60
421;DHT22;23959;49.046;8.468;2022-07-06T01:12:49;16.70;99.60
421;DHT22;23959;49.046;8.468;2022-07-06T01:15:21;16.50;99.60
421;DHT22;23959;49.046;8.468;2022-07-06T01:17:48;16.40;99.60
421;DHT22;23959;49.046;8.468;2022-07-06T01:20:16;16.40;99.60
421;DHT22;23959;49.046;8.468;2022-07-06T01:22:43;16.40;99.60
421;DHT22;23959;49.046;8.468;2022-07-06T01:25:10;16.40;99.60
421;DHT22;23959;49.046;8.468;2022-07-06T01:27:38;16.40;99.60
421;DHT22;23959;49.046;8.468;2022-07-06T01:30:06;16.40;99.60
421;DHT22;23959;49.046;8.468;2022-07-06T01:32:33;16.30;99.60
421;DHT22;23959;49.046;8.468;2022-07-06T01:34:59;16.10;99.60
421;DHT22;23959;49.046;8.468;2022-07-06T01:37:25;16.30;99.60
421;DHT22;23959;49.046;8.468;2022-07-06T01:39:52;16.40;99.60
421;DHT22;23959;49.046;8.468;2022-07-06T01:42:18;16.50;99.60
421;DHT22;23959;49.046;8.468;2022-07-06T01:44:44;16.70;99.60
421;DHT22;23959;49.046;8.468;2022-07-06T01:47:13;16.80;99.60
421;DHT22;23959;49.046;8.468;2022-07-06T01:49:39;16.90;99.60
421;DHT22;23959;49.046;8.468;2022-07-06T01:52:05;17.00;99.60
421;DHT22;23959;49.046;8.468;2022-07-06T01:54:31;17.00;99.60
421;DHT22;23959;49.046;8.468;2022-07-06T01:56:58;17.00;99.60
421;DHT22;23959;49.046;8.468;2022-07-06T01:59:24;17.00;99.60
421;DHT22;23959;49.046;8.468;2022-07-06T02:01:50;17.10;99.60
421;DHT22;23959;49.046;8.468;2022-07-06T02:04:18;17.10;99.60
421;DHT22;23959;49.046;8.468;2022-07-06T02:06:44;17.00;99.60
421;DHT22;23959;49.046;8.468;2022-07-06T02:09:10;16.80;99.60
421;DHT22;23959;49.046;8.468;2022-07-06T02:11:37;16.70;99.60
421;DHT22;23959;49.046;8.468;2022-07-06T02:14:03;16.70;99.60
421;DHT22;23959;49.046;8.468;2022-07-06T02:16:30;16.70;99.60
421;DHT22;23959;49.046;8.468;2022-07-06T02:18:56;16.70;99.60
421;DHT22;23959;49.046;8.468;2022-07-06T02:21:22;16.70;99.60
421;DHT22;23959;49.046;8.468;2022-07-06T02:23:48;16.60;99.60
421;DHT22;23959;49.046;8.468;2022-07-06T02:26:14;16.60;99.60
421;DHT22;23959;49.046;8.468;2022-07-06T02:28:41;16.60;99.60
421;DHT22;23959;49.046;8.468;2022-07-06T02:31:07;16.40;99.60
421;DHT22;23959;49.046;8.468;2022-07-06T02:33:33;16.30;99.60
421;DHT22;23959;49.046;8.468;2022-07-06T02:35:59;16.20;99.60
421;DHT22;23959;49.046;8.468;2022-07-06T02:38:25;16.10;99.60
421;DHT22;23959;49.046;8.468;2022-07-06T02:40:51;16.10;99.60
421;DHT22;23959;49.046;8.468;2022-07-06T02:43:17;16.00;99.60
421;DHT22;23959;49.046;8.468;2022-07-06T02:45:43;15.90;99.60
421;DHT22;23959;49.046;8.468;2022-07-06T02:48:09;16.00;99.60
421;DHT22;23959;49.046;8.468;2022-07-06T02:50:35;15.80;99.60
421;DHT22;23959;49.046;8.468;2022-07-06T02:53:02;15.50;99.60
421;DHT22;23959;49.046;8.468;2022-07-06T02:55:28;15.20;99.60
421;DHT22;23959;49.046;8.468;2022-07-06T02:57:54;15.00;99.60
421;DHT22;23959;49.046;8.468;2022-07-06T03:00:20;14.90;99.60
421;DHT22;23959;49.046;8.468;2022-07-06T03:02:46;14.90;99.60
421;DHT22;23959;49.046;8.468;2022-07-06T03:05:13;15.00;99.60
421;DHT22;23959;49.046;8.468;2022-07-06T03:07:39;15.10;99.60
421;DHT22;23959;49.046;8.468;2022-07-06T03:10:05;15.20;99.60
421;DHT22;23959;49.046;8.468;2022-07-06T03:12:32;15.20;99.60
421;DHT22;23959;49.046;8.468;2022-07-06T03:14:58;15.20;99.60
421;DHT22;23959;49.046;8.468;2022-07-06T03:17:24;15.10;99.60
421;DHT22;23959;49.046;8.468;2022-07-06T03:19:50;15.10;99.60
421;DHT22;23959;49.046;8.468;2022-07-06T03:22:18;15.10;99.60
421;DHT22;23959;49.046;8.468;2022-07-06T03:24:44;15.10;99.60
421;DHT22;23959;49.046;8.468;2022-07-06T03:27:10;15.20;99.60
421;DHT22;23959;49.046;8.468;2022-07-06T03:29:37;15.10;99.60
421;DHT22;23959;49.046;8.468;2022-07-06T03:32:03;15.10;99.60
421;DHT22;23959;49.046;8.468;2022-07-06T03:34:29;15.00;99.60
421;DHT22;23959;49.046;8.468;2022-07-06T03:36:55;15.00;99.60
421;DHT22;23959;49.046;8.468;2022-07-06T03:39:21;14.90;99.60
421;DHT22;23959;49.046;8.468;2022-07-06T03:41:47;14.90;99.60
421;DHT22;23959;49.046;8.468;2022-07-06T03:44:14;14.90;99.60
421;DHT22;23959;49.046;8.468;2022-07-06T03:46:40;14.80;99.60
421;DHT22;23959;49.046;8.468;2022-07-06T03:49:06;14.90;99.60
421;DHT22;23959;49.046;8.468;2022-07-06T03:51:32;14.90;99.60
421;DHT22;23959;49.046;8.468;2022-07-06T03:53:58;14.80;99.60
421;DHT22;23959;49.046;8.468;2022-07-06T03:56:24;14.80;99.60
421;DHT22;23959;49.046;8.468;2022-07-06T03:58:54;14.80;99.60
421;DHT22;23959;49.046;8.468;2022-07-06T04:01:21;14.80;99.60
421;DHT22;23959;49.046;8.468;2022-07-06T04:03:47;14.80;99.60
421;DHT22;23959;49.046;8.468;2022-07-06T04:06:13;14.80;99.60
421;DHT22;23959;49.046;8.468;2022-07-06T04:08:39;14.80;99.60
421;DHT22;23959;49.046;8.468;2022-07-06T04:11:06;14.80;99.60
421;DHT22;23959;49.046;8.468;2022-07-06T04:13:32;14.90;99.60
421;DHT22;23959;49.046;8.468;2022-07-06T04:15:58;15.30;99.60
421;DHT22;23959;49.046;8.468;2022-07-06T04:18:24;15.60;99.60
421;DHT22;23959;49.046;8.468;2022-07-06T04:20:51;15.80;99.60
421;DHT22;23959;49.046;8.468;2022-07-06T04:23:17;16.00;99.60
421;DHT22;23959;49.046;8.468;2022-07-06T04:25:43;16.10;99.60
421;DHT22;23959;49.046;8.468;2022-07-06T04:28:09;16.20;99.60
421;DHT22;23959;49.046;8.468;2022-07-06T04:30:35;16.30;99.60
421;DHT22;23959;49.046;8.468;2022-07-06T04:33:01;16.40;99.60
421;DHT22;23959;49.046;8.468;2022-07-06T04:35:28;16.40;99.60
421;DHT22;23959;49.046;8.468;2022-07-06T04:37:54;16.40;99.60
421;DHT22;23959;49.046;8.468;2022-07-06T04:40:20;16.40;99.60
421;DHT22;23959;49.046;8.468;2022-07-06T04:42:46;16.50;99.60
421;DHT22;23959;49.046;8.468;2022-07-06T04:45:12;16.40;99.60
421;DHT22;23959;49.046;8.468;2022-07-06T04:47:39;17.00;99.60
421;DHT22;23959;49.046;8.468;2022-07-06T04:50:05;17.50;99.60
421;DHT22;23959;49.046;8.468;2022-07-06T04:52:31;17.80;99.60
421;DHT22;23959;49.046;8.468;2022-07-06T04:54:58;17.60;99.60
421;DHT22;23959;49.046;8.468;2022-07-06T04:57:24;17.70;99.60
421;DHT22;23959;49.046;8.468;2022-07-06T04:59:55;18.00;99.60
421;DHT22;23959;49.046;8.468;2022-07-06T05:02:22;17.70;99.60
421;DHT22;23959;49.046;8.468;2022-07-06T05:04:48;17.60;99.60
421;DHT22;23959;49.046;8.468;2022-07-06T05:07:15;17.60;99.60
421;DHT22;23959;49.046;8.468;2022-07-06T05:09:41;17.50;99.60
421;DHT22;23959;49.046;8.468;2022-07-06T05:12:08;17.80;99.60
421;DHT22;23959;49.046;8.468;2022-07-06T05:14:34;17.70;99.60
421;DHT22;23959;49.046;8.468;2022-07-06T05:17:02;17.60;99.60
421;DHT22;23959;49.046;8.468;2022-07-06T05:19:28;17.50;99.60
421;DHT22;23959;49.046;8.468;2022-07-06T05:21:54;17.60;99.60
421;DHT22;23959;49.046;8.468;2022-07-06T05:24:20;17.50;99.60
421;DHT22;23959;49.046;8.468;2022-07-06T05:26:46;17.60;99.60
421;DHT22;23959;49.046;8.468;2022-07-06T05:29:12;17.70;99.60
421;DHT22;23959;49.046;8.468;2022-07-06T05:31:39;17.70;99.60
421;DHT22;23959;49.046;8.468;2022-07-06T05:34:05;17.90;99.60
421;DHT22;23959;49.046;8.468;2022-07-06T05:36:31;17.80;99.60
421;DHT22;23959;49.046;8.468;2022-07-06T05:38:57;17.70;99.60
421;DHT22;23959;49.046;8.468;2022-07-06T05:41:23;17.80;99.60
421;DHT22;23959;49.046;8.468;2022-07-06T05:43:49;17.80;99.60
421;DHT22;23959;49.046;8.468;2022-07-06T05:46:15;17.70;99.60
421;DHT22;23959;49.046;8.468;2022-07-06T05:48:42;17.60;99.60
421;DHT22;23959;49.046;8.468;2022-07-06T05:51:26;17.50;99.60
421;DHT22;23959;49.046;8.468;2022-07-06T05:53:52;17.70;99.60
421;DHT22;23959;49.046;8.468;2022-07-06T05:56:18;17.90;99.60
421;DHT22;23959;49.046;8.468;2022-07-06T05:58:45;18.10;99.60
421;DHT22;23959;49.046;8.468;2022-07-06T06:01:11;18.10;99.60
421;DHT22;23959;49.046;8.468;2022-07-06T06:03:37;18.00;99.60
421;DHT22;23959;49.046;8.468;2022-07-06T06:06:03;18.00;99.60
421;DHT22;23959;49.046;8.468;2022-07-06T06:08:30;18.20;99.60
421;DHT22;23959;49.046;8.468;2022-07-06T06:10:56;18.20;99.60
421;DHT22;23959;49.046;8.468;2022-07-06T06:13:22;18.40;99.60
421;DHT22;23959;49.046;8.468;2022-07-06T06:15:48;18.50;99.60
421;DHT22;23959;49.046;8.468;2022-07-06T06:18:15;18.60;99.60
421;DHT22;23959;49.046;8.468;2022-07-06T06:20:43;18.80;99.60
421;DHT22;23959;49.046;8.468;2022-07-06T06:23:09;18.70;99.60
421;DHT22;23959;49.046;8.468;2022-07-06T06:25:37;19.10;99.60
421;DHT22;23959;49.046;8.468;2022-07-06T06:28:08;18.80;99.60
421;DHT22;23959;49.046;8.468;2022-07-06T06:30:35;18.90;99.60
421;DHT22;23959;49.046;8.468;2022-07-06T06:33:20;18.90;99.60
421;DHT22;23959;49.046;8.468;2022-07-06T06:35:51;18.80;99.60
421;DHT22;23959;49.046;8.468;2022-07-06T06:38:22;19.00;99.60
421;DHT22;23959;49.046;8.468;2022-07-06T06:40:51;19.30;99.60
421;DHT22;23959;49.046;8.468;2022-07-06T06:43:18;19.30;99.60
421;DHT22;23959;49.046;8.468;2022-07-06T06:45:44;19.10;99.60
421;DHT22;23959;49.046;8.468;2022-07-06T06:48:12;19.50;99.60
421;DHT22;23959;49.046;8.468;2022-07-06T06:50:38;19.30;99.60
421;DHT22;23959;49.046;8.468;2022-07-06T06:53:04;19.00;99.60
421;DHT22;23959;49.046;8.468;2022-07-06T06:55:30;19.30;99.60
421;DHT22;23959;49.046;8.468;2022-07-06T06:57:56;19.40;99.60
421;DHT22;23959;49.046;8.468;2022-07-06T07:00:23;19.60;99.60
421;DHT22;23959;49.046;8.468;2022-07-06T07:02:49;19.80;99.60
421;DHT22;23959;49.046;8.468;2022-07-06T07:05:15;19.90;99.60
421;DHT22;23959;49.046;8.468;2022-07-06T07:07:41;19.90;99.60
421;DHT22;23959;49.046;8.468;2022-07-06T07:10:09;19.80;99.60
421;DHT22;23959;49.046;8.468;2022-07-06T07:12:35;20.20;99.60
421;DHT22;23959;49.046;8.468;2022-07-06T07:15:07;20.30;99.60
421;DHT22;23959;49.046;8.468;2022-07-06T07:17:34;20.30;99.60
421;DHT22;23959;49.046;8.468;2022-07-06T07:20:00;20.00;99.60
421;DHT22;23959;49.046;8.468;2022-07-06T07:22:28;19.60;99.60
421;DHT22;23959;49.046;8.468;2022-07-06T07:24:54;19.70;99.60
421;DHT22;23959;49.046;8.468;2022-07-06T07:27:20;20.20;99.60
421;DHT22;23959;49.046;8.468;2022-07-06T07:29:46;19.90;99.60
421;DHT22;23959;49.046;8.468;2022-07-06T07:32:13;19.50;99.60
421;DHT22;23959;49.046;8.468;2022-07-06T07:34:39;19.70;99.60
421;DHT22;23959;49.046;8.468;2022-07-06T07:37:05;19.60;99.60
421;DHT22;23959;49.046;8.468;2022-07-06T07:39:31;19.80;99.60
421;DHT22;23959;49.046;8.468;2022-07-06T07:41:57;19.90;99.60
421;DHT22;23959;49.046;8.468;2022-07-06T07:44:24;20.20;99.60
421;DHT22;23959;49.046;8.468;2022-07-06T07:46:51;20.40;99.60
421;DHT22;23959;49.046;8.468;2022-07-06T07:49:18;20.50;99.60
421;DHT22;23959;49.046;8.468;2022-07-06T07:51:48;20.10;99.60
421;DHT22;23959;49.046;8.468;2022-07-06T07:54:14;19.90;99.60
421;DHT22;23959;49.046;8.468;2022-07-06T07:56:41;20.00;99.60
421;DHT22;23959;49.046;8.468;2022-07-06T07:59:08;20.00;99.60
421;DHT22;23959;49.046;8.468;2022-07-06T08:01:34;20.50;99.60
421;DHT22;23959;49.046;8.468;2022-07-06T08:04:01;20.30;99.60
421;DHT22;23959;49.046;8.468;2022-07-06T08:06:28;20.20;99.60
421;DHT22;23959;49.046;8.468;2022-07-06T08:08:54;20.80;99.60
421;DHT22;23959;49.046;8.468;2022-07-06T08:11:20;20.90;99.60
421;DHT22;23959;49.046;8.468;2022-07-06T08:13:47;20.90;99.60
421;DHT22;23959;49.046;8.468;2022-07-06T08:16:13;21.00;99.60
421;DHT22;23959;49.046;8.468;2022-07-06T08:18:40;21.00;99.60
421;DHT22;23959;49.046;8.468;2022-07-06T08:21:06;20.80;99.60
421;DHT22;23959;49.046;8.468;2022-07-06T08:23:32;20.90;99.60
421;DHT22;23959;49.046;8.468;2022-07-06T08:26:02;20.90;99.60
421;DHT22;23959;49.046;8.468;2022-07-06T08:28:28;21.50;99.60
421;DHT22;23959;49.046;8.468;2022-07-06T08:30:54;21.40;99.60
421;DHT22;23959;49.046;8.468;2022-07-06T08:33:21;21.40;99.60
421;DHT22;23959;49.046;8.468;2022-07-06T08:35:47;21.60;99.60
421;DHT22;23959;49.046;8.468;2022-07-06T08:38:13;21.70;99.60
421;DHT22;23959;49.046;8.468;2022-07-06T08:40:41;21.60;99.60
421;DHT22;23959;49.046;8.468;2022-07-06T08:43:09;21.60;99.60
421;DHT22;23959;49.046;8.468;2022-07-06T08:45:35;21.80;99.60
421;DHT22;23959;49.046;8.468;2022-07-06T08:48:06;21.60;99.60
421;DHT22;23959;49.046;8.468;2022-07-06T08:50:33;21.60;99.60
421;DHT22;23959;49.046;8.468;2022-07-06T08:53:00;21.40;99.60
421;DHT22;23959;49.046;8.468;2022-07-06T08:55:27;21.40;99.60
421;DHT22;23959;49.046;8.468;2022-07-06T08:57:55;21.80;99.60
421;DHT22;23959;49.046;8.468;2022-07-06T09:00:22;21.60;99.60
421;DHT22;23959;49.046;8.468;2022-07-06T09:02:49;21.80;99.60
421;DHT22;23959;49.046;8.468;2022-07-06T09:05:23;21.70;99.60
421;DHT22;23959;49.046;8.468;2022-07-06T09:07:51;22.20;99.60
421;DHT22;23959;49.046;8.468;2022-07-06T09:10:19;21.80;99.60
421;DHT22;23959;49.046;8.468;2022-07-06T09:12:46;21.90;99.60
421;DHT22;23959;49.046;8.468;2022-07-06T09:15:13;21.60;99.60
421;DHT22;23959;49.046;8.468;2022-07-06T09:17:41;21.40;99.60
421;DHT22;23959;49.046;8.468;2022-07-06T09:20:09;21.40;99.60
421;DHT22;23959;49.046;8.468;2022-07-06T09:22:37;21.60;99.60
421;DHT22;23959;49.046;8.468;2022-07-06T09:25:07;21.60;99.60
421;DHT22;23959;49.046;8.468;2022-07-06T09:27:38;21.60;99.60
421;DHT22;23959;49.046;8.468;2022-07-06T09:30:05;21.60;99.60
421;DHT22;23959;49.046;8.468;2022-07-06T09:32:41;21.80;99.60
421;DHT22;23959;49.046;8.468;2022-07-06T09:35:09;21.80;99.60
421;DHT22;23959;49.046;8.468;2022-07-06T09:37:44;22.00;99.60
421;DHT22;23959;49.046;8.468;2022-07-06T09:40:19;22.00;99.60
421;DHT22;23959;49.046;8.468;2022-07-06T09:42:46;22.00;99.60
421;DHT22;23959;49.046;8.468;2022-07-06T09:45:12;21.90;99.60
421;DHT22;23959;49.046;8.468;2022-07-06T09:47:38;22.30;99.60
421;DHT22;23959;49.046;8.468;2022-07-06T09:50:07;22.50;99.60
421;DHT22;23959;49.046;8.468;2022-07-06T09:52:34;22.80;99.60
421;DHT22;23959;49.046;8.468;2022-07-06T09:55:05;23.00;99.60
421;DHT22;23959;49.046;8.468;2022-07-06T09:57:31;23.10;99.60
421;DHT22;23959;49.046;8.468;2022-07-06T09:59:58;23.40;99.60
421;DHT22;23959;49.046;8.468;2022-07-06T10:02:24;23.10;99.60
421;DHT22;23959;49.046;8.468;2022-07-06T10:04:54;22.80;99.60
421;DHT22;23959;49.046;8.468;2022-07-06T10:07:22;23.10;99.60
421;DHT22;23959;49.046;8.468;2022-07-06T10:09:50;23.40;99.60
421;DHT22;23959;49.046;8.468;2022-07-06T10:12:17;23.40;99.60
421;DHT22;23959;49.046;8.468;2022-07-06T10:14:45;23.50;99.60
421;DHT22;23959;49.046;8.468;2022-07-06T10:17:12;22.40;99.60
421;DHT22;23959;49.046;8.468;2022-07-06T10:19:39;22.70;99.60
421;DHT22;23959;49.046;8.468;2022-07-06T10:22:06;22.60;99.60
421;DHT22;23959;49.046;8.468;2022-07-06T10:24:33;22.70;99.60
421;DHT22;23959;49.046;8.468;2022-07-06T10:27:05;23.00;99.60
421;DHT22;23959;49.046;8.468;2022-07-06T10:29:33;22.70;99.60
421;DHT22;23959;49.046;8.468;2022-07-06T10:32:00;22.80;99.60
421;DHT22;23959;49.046;8.468;2022-07-06T10:34:26;23.10;99.60
421;DHT22;23959;49.046;8.468;2022-07-06T10:36:53;23.30;99.60
421;DHT22;23959;49.046;8.468;2022-07-06T10:39:34;23.70;99.60
421;DHT22;23959;49.046;8.468;2022-07-06T10:45:13;23.80;99.60
421;DHT22;23959;49.046;8.468;2022-07-06T10:47:41;23.90;99.60
421;DHT22;23959;49.046;8.468;2022-07-06T10:50:08;23.60;99.60
421;DHT22;23959;49.046;8.468;2022-07-06T10:52:49;23.80;99.60
421;DHT22;23959;49.046;8.468;2022-07-06T10:55:35;23.80;99.60
421;DHT22;23959;49.046;8.468;2022-07-06T10:58:02;24.30;99.60
421;DHT22;23959;49.046;8.468;2022-07-06T11:00:52;24.20;99.60
421;DHT22;23959;49.046;8.468;2022-07-06T11:06:24;24.30;99.60
421;DHT22;23959;49.046;8.468;2022-07-06T11:08:52;24.50;99.60
421;DHT22;23959;49.046;8.468;2022-07-06T11:11:21;24.70;99.60
421;DHT22;23959;49.046;8.468;2022-07-06T11:16:20;24.60;99.60
421;DHT22;23959;49.046;8.468;2022-07-06T11:18:48;24.30;99.60
421;DHT22;23959;49.046;8.468;2022-07-06T11:23:42;25.10;99.60
421;DHT22;23959;49.046;8.468;2022-07-06T11:26:10;25.10;99.60
421;DHT22;23959;49.046;8.468;2022-07-06T11:28:37;25.40;99.60
421;DHT22;23959;49.046;8.468;2022-07-06T11:31:04;26.10;99.60
421;DHT22;23959;49.046;8.468;2022-07-06T11:33:31;26.40;99.60
421;DHT22;23959;49.046;8.468;2022-07-06T11:36:17;26.40;99.60
421;DHT22;23959;49.046;8.468;2022-07-06T11:38:45;26.50;99.60
421;DHT22;23959;49.046;8.468;2022-07-06T11:41:12;27.00;99.60
421;DHT22;23959;49.046;8.468;2022-07-06T11:43:44;25.70;99.60
421;DHT22;23959;49.046;8.468;2022-07-06T11:46:29;25.50;99.60
421;DHT22;23959;49.046;8.468;2022-07-06T11:51:29;25.70;99.60
421;DHT22;23959;49.046;8.468;2022-07-06T11:53:58;25.50;99.60
421;DHT22;23959;49.046;8.468;2022-07-06T11:56:26;25.50;99.60
421;DHT22;23959;49.046;8.468;2022-07-06T11:58:55;26.40;99.60
421;DHT22;23959;49.046;8.468;2022-07-06T12:01:25;26.20;99.60
421;DHT22;23959;49.046;8.468;2022-07-06T12:03:53;25.50;99.60
421;DHT22;23959;49.046;8.468;2022-07-06T12:06:22;24.60;99.60
421;DHT22;23959;49.046;8.468;2022-07-06T12:08:51;25.30;99.60
421;DHT22;23959;49.046;8.468;2022-07-06T12:11:28;25.30;99.60
421;DHT22;23959;49.046;8.468;2022-07-06T12:13:57;25.70;99.60
421;DHT22;23959;49.046;8.468;2022-07-06T12:16:34;26.20;99.60
421;DHT22;23959;49.046;8.468;2022-07-06T12:19:02;25.50;99.60
421;DHT22;23959;49.046;8.468;2022-07-06T12:21:30;26.50;99.60
421;DHT22;23959;49.046;8.468;2022-07-06T12:23:56;27.30;99.60
421;DHT22;23959;49.046;8.468;2022-07-06T12:26:25;27.80;99.60
421;DHT22;23959;49.046;8.468;2022-07-06T12:31:38;28.40;99.60
421;DHT22;23959;49.046;8.468;2022-07-06T12:34:12;27.20;99.60
421;DHT22;23959;49.046;8.468;2022-07-06T12:36:44;26.20;99.60
421;DHT22;23959;49.046;8.468;2022-07-06T12:39:12;26.40;99.60
421;DHT22;23959;49.046;8.468;2022-07-06T12:42:02;26.80;99.60
421;DHT22;23959;49.046;8.468;2022-07-06T12:44:29;27.50;99.60
421;DHT22;23959;49.046;8.468;2022-07-06T12:49:47;29.70;97.20
421;DHT22;23959;49.046;8.468;2022-07-06T12:52:15;30.20;96.60
421;DHT22;23959;49.046;8.468;2022-07-06T12:54:50;29.10;97.90
421;DHT22;23959;49.046;8.468;2022-07-06T12:57:21;27.50;99.60
421;DHT22;23959;49.046;8.468;2022-07-06T13:00:00;28.20;99.60
421;DHT22;23959;49.046;8.468;2022-07-06T13:02:31;29.30;99.60
421;DHT22;23959;49.046;8.468;2022-07-06T13:07:33;28.70;99.20
421;DHT22;23959;49.046;8.468;2022-07-06T13:10:08;29.30;98.40
421;DHT22;23959;49.046;8.468;2022-07-06T13:12:36;28.70;99.20
421;DHT22;23959;49.046;8.468;2022-07-06T13:15:04;29.60;97.60
421;DHT22;23959;49.046;8.468;2022-07-06T13:17:30;30.40;95.30
421;DHT22;23959;49.046;8.468;2022-07-06T13:19:57;31.70;92.70
421;DHT22;23959;49.046;8.468;2022-07-06T13:22:23;31.70;91.60
421;DHT22;23959;49.046;8.468;2022-07-06T13:24:49;31.80;92.40
421;DHT22;23959;49.046;8.468;2022-07-06T13:27:16;31.70;91.10
421;DHT22;23959;49.046;8.468;2022-07-06T13:29:43;30.30;92.90
421;DHT22;23959;49.046;8.468;2022-07-06T13:32:09;30.50;93.20
421;DHT22;23959;49.046;8.468;2022-07-06T13:34:36;30.50;92.00
421;DHT22;23959;49.046;8.468;2022-07-06T13:37:03;30.30;92.50
421;DHT22;23959;49.046;8.468;2022-07-06T13:39:30;30.90;92.40
421;DHT22;23959;49.046;8.468;2022-07-06T13:41:56;31.80;91.20
421;DHT22;23959;49.046;8.468;2022-07-06T13:44:23;28.90;94.20
421;DHT22;23959;49.046;8.468;2022-07-06T13:46:50;28.20;96.70
421;DHT22;23959;49.046;8.468;2022-07-06T13:49:17;29.90;93.30
421;DHT22;23959;49.046;8.468;2022-07-06T13:51:43;29.60;93.20
421;DHT22;23959;49.046;8.468;2022-07-06T13:54:10;28.60;93.80
421;DHT22;23959;49.046;8.468;2022-07-06T13:56:39;26.70;97.60
421;DHT22;23959;49.046;8.468;2022-07-06T13:59:06;26.60;98.60
421;DHT22;23959;49.046;8.468;2022-07-06T14:01:32;26.10;98.60
421;DHT22;23959;49.046;8.468;2022-07-06T14:04:01;27.90;95.30
421;DHT22;23959;49.046;8.468;2022-07-06T14:06:27;28.60;94.00
421;DHT22;23959;49.046;8.468;2022-07-06T14:08:54;29.50;92.90
421;DHT22;23959;49.046;8.468;2022-07-06T14:11:20;30.20;91.70
421;DHT22;23959;49.046;8.468;2022-07-06T14:13:47;30.00;90.70
421;DHT22;23959;49.046;8.468;2022-07-06T14:16:13;30.60;90.00
421;DHT22;23959;49.046;8.468;2022-07-06T14:18:40;31.10;88.00
421;DHT22;23959;49.046;8.468;2022-07-06T14:21:06;30.90;88.50
421;DHT22;23959;49.046;8.468;2022-07-06T14:23:33;31.80;86.40
421;DHT22;23959;49.046;8.468;2022-07-06T14:25:59;31.00;86.70
421;DHT22;23959;49.046;8.468;2022-07-06T14:28:25;30.60;87.40
421;DHT22;23959;49.046;8.468;2022-07-06T14:30:52;30.40;87.50
421;DHT22;23959;49.046;8.468;2022-07-06T14:33:18;30.40;86.70
421;DHT22;23959;49.046;8.468;2022-07-06T14:35:47;31.10;86.20
421;DHT22;23959;49.046;8.468;2022-07-06T14:38:15;30.80;85.40
421;DHT22;23959;49.046;8.468;2022-07-06T14:40:42;31.60;85.80
421;DHT22;23959;49.046;8.468;2022-07-06T14:43:09;31.70;85.00
421;DHT22;23959;49.046;8.468;2022-07-06T14:45:36;30.60;85.40
421;DHT22;23959;49.046;8.468;2022-07-06T14:48:03;29.20;88.60
421;DHT22;23959;49.046;8.468;2022-07-06T14:50:31;30.30;87.10
421;DHT22;23959;49.046;8.468;2022-07-06T14:52:58;31.30;85.40
421;DHT22;23959;49.046;8.468;2022-07-06T14:55:24;31.70;84.00
421;DHT22;23959;49.046;8.468;2022-07-06T14:57:50;30.60;85.70
421;DHT22;23959;49.046;8.468;2022-07-06T15:00:17;31.20;84.70
421;DHT22;23959;49.046;8.468;2022-07-06T15:02:43;31.60;83.10
421;DHT22;23959;49.046;8.468;2022-07-06T15:05:10;33.80;80.20
421;DHT22;23959;49.046;8.468;2022-07-06T15:07:37;34.00;79.00
421;DHT22;23959;49.046;8.468;2022-07-06T15:10:04;32.20;81.70
421;DHT22;23959;49.046;8.468;2022-07-06T15:12:31;31.00;84.00
421;DHT22;23959;49.046;8.468;2022-07-06T15:14:58;30.90;85.00
421;DHT22;23959;49.046;8.468;2022-07-06T15:17:24;31.60;84.00
421;DHT22;23959;49.046;8.468;2022-07-06T15:19:50;30.90;84.40
421;DHT22;23959;49.046;8.468;2022-07-06T15:22:16;31.20;85.40
421;DHT22;23959;49.046;8.468;2022-07-06T15:24:43;30.00;85.60
421;DHT22;23959;49.046;8.468;2022-07-06T15:27:09;29.10;88.00
421;DHT22;23959;49.046;8.468;2022-07-06T15:29:35;28.70;87.70
421;DHT22;23959;49.046;8.468;2022-07-06T15:32:01;28.20;88.50
421;DHT22;23959;49.046;8.468;2022-07-06T15:34:28;28.20;89.00
421;DHT22;23959;49.046;8.468;2022-07-06T15:36:54;28.60;88.80
421;DHT22;23959;49.046;8.468;2022-07-06T15:39:21;28.00;88.20
421;DHT22;23959;49.046;8.468;2022-07-06T15:41:47;28.00;89.20
421;DHT22;23959;49.046;8.468;2022-07-06T15:44:14;27.60;89.40
421;DHT22;23959;49.046;8.468;2022-07-06T15:46:40;27.40;89.60
421;DHT22;23959;49.046;8.468;2022-07-06T15:49:06;27.20;90.70
421;DHT22;23959;49.046;8.468;2022-07-06T15:51:32;27.30;89.70
421;DHT22;23959;49.046;8.468;2022-07-06T15:54:00;27.30;89.50
421;DHT22;23959;49.046;8.468;2022-07-06T15:56:27;26.30;90.60
421;DHT22;23959;49.046;8.468;2022-07-06T15:58:53;26.30;91.40
421;DHT22;23959;49.046;8.468;2022-07-06T16:01:19;26.60;90.90
421;DHT22;23959;49.046;8.468;2022-07-06T16:03:45;26.60;90.20
421;DHT22;23959;49.046;8.468;2022-07-06T16:06:12;26.60;90.70
421;DHT22;23959;49.046;8.468;2022-07-06T16:08:39;25.80;91.30
421;DHT22;23959;49.046;8.468;2022-07-06T16:11:06;25.60;91.90
421;DHT22;23959;49.046;8.468;2022-07-06T16:13:32;25.50;92.60
421;DHT22;23959;49.046;8.468;2022-07-06T16:15:58;25.20;92.60
421;DHT22;23959;49.046;8.468;2022-07-06T16:18:25;25.10;93.20
421;DHT22;23959;49.046;8.468;2022-07-06T16:20:51;25.60;93.10
421;DHT22;23959;49.046;8.468;2022-07-06T16:23:17;25.30;92.50
421;DHT22;23959;49.046;8.468;2022-07-06T16:25:44;25.00;93.50